Time;durP1;ratioP1;P1;durP2;ratioP2;P2;SDS_P1;SDS_P2;PMS_P1;PMS_P2;Temp;Humidity;BMP_temperature;BMP_pressure;BME280_temperature;BME280_humidity;BME280_pressure;Samples;Min_cycle;Max_cycle;Signal;HPM_P1;HPM_P2
2022/11/10 00:00:13;;;;;;;10.05;1.55;;;15.40;51.30;;;;;;5062801;28;20052;-46
2022/11/10 00:02:42;;;;;;;5.35;2.10;;;15.40;51.40;;;;;;5053712;28;20048;-45
2022/11/10 00:05:09;;;;;;;5.75;1.40;;;15.40;51.40;;;;;;5049663;28;20504;-43
2022/11/10 00:07:37;;;;;;;6.47;1.52;;;15.40;51.50;;;;;;5065902;28;20057;-42
2022/11/10 00:10:07;;;;;;;8.43;1.13;;;15.30;51.50;;;;;;5052231;28;20045;-44
2022/11/10 00:12:34;;;;;;;3.13;1.35;;;15.30;51.50;;;;;;5045984;28;20061;-42
2022/11/10 00:17:46;;;;;;;8.30;1.30;;;15.30;51.60;;;;;;5071607;28;20049;-48
2022/11/10 00:20:14;;;;;;;5.63;1.23;;;15.30;51.70;;;;;;5048340;28;20370;-45
2022/11/10 00:22:41;;;;;;;5.47;1.17;;;15.30;51.70;;;;;;5045278;28;20061;-41
2022/11/10 00:25:11;;;;;;;2.53;0.98;;;15.30;51.80;;;;;;5045626;28;20049;-44
2022/11/10 00:27:39;;;;;;;7.53;1.20;;;15.30;51.80;;;;;;5051067;28;20420;-42
2022/11/10 00:30:07;;;;;;;6.97;1.77;;;15.30;51.90;;;;;;5050746;28;20045;-44
2022/11/10 00:32:34;;;;;;;8.00;1.67;;;15.30;51.90;;;;;;5048501;28;20068;-47
2022/11/10 00:35:01;;;;;;;6.35;1.13;;;15.30;51.90;;;;;;5055055;28;20064;-44
2022/11/10 00:37:29;;;;;;;9.90;1.63;;;15.30;51.90;;;;;;5065244;28;20063;-42
2022/11/10 00:39:56;;;;;;;5.40;1.20;;;15.30;52.00;;;;;;5057105;28;20056;-41
2022/11/10 00:42:24;;;;;;;5.95;1.30;;;15.30;52.00;;;;;;5050122;28;20079;-43
2022/11/10 00:44:52;;;;;;;7.15;1.60;;;15.30;52.00;;;;;;5051619;28;20056;-45
2022/11/10 00:47:19;;;;;;;12.60;1.70;;;15.30;52.10;;;;;;5050085;28;20072;-44
2022/11/10 00:49:46;;;;;;;3.50;1.13;;;15.30;52.10;;;;;;5065566;28;20061;-45
2022/11/10 00:52:13;;;;;;;7.15;1.75;;;15.30;52.10;;;;;;5043610;28;20061;-51
2022/11/10 00:54:40;;;;;;;4.72;1.00;;;15.20;52.10;;;;;;5054078;28;20408;-43
2022/11/10 00:57:08;;;;;;;4.50;1.10;;;15.30;52.20;;;;;;5057775;28;20056;-42
2022/11/10 00:59:36;;;;;;;9.18;1.30;;;15.20;52.20;;;;;;5065436;28;20048;-42
2022/11/10 01:02:04;;;;;;;10.10;1.90;;;15.30;52.20;;;;;;5046477;28;20068;-45
2022/11/10 01:04:31;;;;;;;9.13;1.48;;;15.20;52.20;;;;;;5065725;28;20065;-45
2022/11/10 01:06:58;;;;;;;7.10;1.40;;;15.20;52.30;;;;;;5045659;28;20056;-50
2022/11/10 01:09:25;;;;;;;4.88;1.33;;;15.20;52.20;;;;;;5058043;28;20049;-41
2022/11/10 01:11:53;;;;;;;4.60;1.17;;;15.20;52.20;;;;;;5047602;28;20053;-42
2022/11/10 01:14:20;;;;;;;6.07;1.27;;;15.20;52.20;;;;;;5046137;28;20079;-42
2022/11/10 01:16:48;;;;;;;4.68;1.40;;;15.20;52.20;;;;;;5047356;28;20049;-46
2022/11/10 01:19:16;;;;;;;12.75;1.90;;;15.20;52.20;;;;;;5049267;28;20053;-44
2022/11/10 01:21:43;;;;;;;6.00;1.42;;;15.20;52.20;;;;;;5052151;28;20055;-44
2022/11/10 01:24:10;;;;;;;10.43;1.38;;;15.20;52.20;;;;;;5052249;28;20059;-43
2022/11/10 01:26:37;;;;;;;4.72;1.05;;;15.20;52.20;;;;;;5051070;28;20400;-42
2022/11/10 01:29:04;;;;;;;5.47;1.23;;;15.10;52.30;;;;;;5048265;28;20056;-44
2022/11/10 01:31:32;;;;;;;5.45;1.25;;;15.10;52.30;;;;;;5047721;28;20048;-43
2022/11/10 01:34:00;;;;;;;6.53;1.50;;;15.10;52.20;;;;;;5050930;28;20052;-44
2022/11/10 01:36:27;;;;;;;5.25;1.23;;;15.10;52.30;;;;;;5051623;28;20056;-43
2022/11/10 01:38:55;;;;;;;5.30;1.38;;;15.10;52.30;;;;;;5057637;28;20056;-44
2022/11/10 01:41:22;;;;;;;6.95;1.50;;;15.10;52.30;;;;;;5054363;28;20051;-47
2022/11/10 01:43:49;;;;;;;6.28;1.25;;;15.00;52.30;;;;;;5055361;28;20053;-43
2022/11/10 01:46:17;;;;;;;15.68;1.50;;;15.00;52.30;;;;;;5051203;28;20493;-42
2022/11/10 01:48:46;;;;;;;8.02;1.40;;;15.00;52.30;;;;;;5064322;28;20068;-43
2022/11/10 01:51:20;;;;;;;6.90;1.50;;;15.00;52.40;;;;;;5058479;28;20049;-46
2022/11/10 01:53:53;;;;;;;7.88;1.85;;;15.00;52.40;;;;;;5052355;28;20401;-41
2022/11/10 01:56:21;;;;;;;9.80;1.55;;;15.00;52.50;;;;;;5051299;28;20064;-44
2022/11/10 01:58:53;;;;;;;6.38;1.40;;;14.90;52.40;;;;;;5059914;28;20056;-43
2022/11/10 02:01:20;;;;;;;6.25;1.50;;;14.90;52.50;;;;;;5049548;28;20057;-43
2022/11/10 02:03:50;;;;;;;5.03;1.08;;;14.90;52.50;;;;;;5064035;28;20056;-42
2022/11/10 02:06:22;;;;;;;6.90;1.40;;;14.90;52.50;;;;;;5052215;28;20053;-43
2022/11/10 02:08:50;;;;;;;5.15;1.25;;;14.90;52.60;;;;;;5055263;28;20056;-42
2022/11/10 02:11:18;;;;;;;5.10;1.10;;;14.90;52.60;;;;;;5049552;28;20393;-46
2022/11/10 02:13:45;;;;;;;5.07;1.20;;;14.90;52.60;;;;;;5060486;28;20060;-43
2022/11/10 02:16:13;;;;;;;5.97;0.95;;;14.90;52.60;;;;;;5053202;28;20048;-42
2022/11/10 02:18:40;;;;;;;9.05;1.20;;;14.90;52.60;;;;;;5047635;28;20049;-45
2022/11/10 02:21:09;;;;;;;7.03;1.20;;;14.90;52.60;;;;;;5042994;28;20040;-42
2022/11/10 02:23:48;;;;;;;7.25;1.10;;;14.80;52.60;;;;;;5048822;28;20539;-47
2022/11/10 02:26:18;;;;;;;7.43;1.10;;;14.80;52.70;;;;;;5045883;28;20052;-42
2022/11/10 02:28:45;;;;;;;9.35;1.70;;;14.80;52.60;;;;;;5046963;28;20052;-42
2022/11/10 02:31:12;;;;;;;7.72;1.27;;;14.80;52.60;;;;;;5053383;28;20061;-42
2022/11/10 02:33:40;;;;;;;9.45;1.75;;;14.80;52.70;;;;;;5055903;28;20405;-43
2022/11/10 02:36:09;;;;;;;5.97;1.17;;;14.80;52.70;;;;;;5050050;28;20048;-47
2022/11/10 02:38:37;;;;;;;5.18;1.13;;;14.80;52.70;;;;;;5036762;28;20056;-42
2022/11/10 02:41:04;;;;;;;6.43;1.10;;;14.80;52.80;;;;;;5050395;28;20044;-41
2022/11/10 02:43:31;;;;;;;7.43;1.15;;;14.70;52.80;;;;;;5052166;28;20234;-46
2022/11/10 02:45:59;;;;;;;11.00;1.42;;;14.70;52.80;;;;;;5040944;28;20060;-43
2022/11/10 02:48:26;;;;;;;7.30;1.40;;;14.70;52.90;;;;;;5046877;28;20064;-44
2022/11/10 02:50:53;;;;;;;8.88;1.50;;;14.70;52.90;;;;;;5057561;28;20055;-49
2022/11/10 02:53:22;;;;;;;7.45;1.52;;;14.60;52.90;;;;;;5050729;28;20390;-48
2022/11/10 02:55:49;;;;;;;12.13;2.03;;;14.70;53.10;;;;;;5046986;28;20060;-44
2022/11/10 02:58:16;;;;;;;8.20;1.42;;;14.60;53.00;;;;;;5046905;28;20057;-44
2022/11/10 03:00:43;;;;;;;11.40;1.50;;;14.60;53.10;;;;;;5042905;28;20057;-46
2022/11/10 03:03:12;;;;;;;9.38;1.60;;;14.60;53.20;;;;;;5045069;28;20139;-48
2022/11/10 03:05:39;;;;;;;9.43;1.50;;;14.60;53.20;;;;;;5056323;28;20057;-51
2022/11/10 03:08:06;;;;;;;4.57;1.25;;;14.60;53.20;;;;;;5053636;28;20061;-54
2022/11/10 03:10:35;;;;;;;6.90;1.58;;;14.60;53.20;;;;;;5046570;28;20424;-54
2022/11/10 03:13:02;;;;;;;8.98;1.50;;;14.50;53.20;;;;;;5049941;28;20055;-55
2022/11/10 03:15:30;;;;;;;8.65;1.50;;;14.50;53.20;;;;;;5044659;28;20064;-55
2022/11/10 03:18:02;;;;;;;9.23;1.60;;;14.50;53.20;;;;;;5054489;28;20068;-56
2022/11/10 03:20:29;;;;;;;8.18;1.40;;;14.50;53.20;;;;;;5051958;28;20049;-56
2022/11/10 03:23:00;;;;;;;6.80;1.33;;;14.50;53.20;;;;;;5054167;28;20053;-56
2022/11/10 03:25:28;;;;;;;4.25;1.13;;;14.50;53.20;;;;;;5062063;28;20076;-56
2022/11/10 03:27:56;;;;;;;7.07;1.50;;;14.50;53.20;;;;;;5047309;28;20049;-51
2022/11/10 03:30:24;;;;;;;6.63;1.50;;;14.50;53.30;;;;;;5045500;28;20057;-56
2022/11/10 03:32:51;;;;;;;6.90;1.27;;;14.40;53.30;;;;;;5045650;28;20045;-55
2022/11/10 03:35:18;;;;;;;9.05;1.55;;;14.40;53.30;;;;;;5050188;28;20052;-51
2022/11/10 03:37:45;;;;;;;6.45;1.35;;;14.40;53.30;;;;;;5055450;28;20504;-56
2022/11/10 03:40:13;;;;;;;6.40;1.00;;;14.40;53.30;;;;;;5039240;28;20060;-55
2022/11/10 03:42:42;;;;;;;5.72;1.20;;;14.40;53.30;;;;;;5045513;28;20478;-56
2022/11/10 03:45:12;;;;;;;8.82;1.52;;;14.30;53.30;;;;;;5039921;28;20045;-55
2022/11/10 03:47:40;;;;;;;9.05;1.50;;;14.30;53.30;;;;;;5045616;28;20480;-55
2022/11/10 03:50:08;;;;;;;5.93;1.38;;;14.30;53.30;;;;;;5056797;28;20067;-55
2022/11/10 03:52:35;;;;;;;8.65;1.67;;;14.40;53.40;;;;;;5049177;28;20052;-55
2022/11/10 03:55:02;;;;;;;9.27;1.48;;;14.30;53.40;;;;;;5039201;28;20061;-56
2022/11/10 03:57:29;;;;;;;7.18;1.95;;;14.30;53.90;;;;;;5036725;28;20060;-54
2022/11/10 03:59:56;;;;;;;5.97;1.42;;;14.30;53.40;;;;;;5040304;28;20512;-55
2022/11/10 04:02:25;;;;;;;8.43;2.10;;;14.30;53.40;;;;;;5042830;28;20064;-56
2022/11/10 04:10:22;;;;;;;11.38;1.80;;;14.20;53.60;;;;;;5048975;28;20508;-48
2022/11/10 04:15:43;;;;;;;17.13;2.03;;;14.20;53.70;;;;;;5058614;28;20055;-54
2022/11/10 04:18:28;;;;;;;10.20;1.85;;;14.20;53.80;;;;;;5053744;28;20049;-52
2022/11/10 04:20:57;;;;;;;8.50;1.30;;;14.10;53.80;;;;;;5056493;28;20056;-48
2022/11/10 04:23:29;;;;;;;4.25;1.20;;;14.20;53.90;;;;;;5021914;28;20083;-55
2022/11/10 04:28:45;;;;;;;8.02;1.30;;;14.10;54.00;;;;;;5041463;28;20044;-53
2022/11/10 04:31:13;;;;;;;12.73;1.90;;;14.10;54.00;;;;;;5044067;28;20059;-55
2022/11/10 04:33:43;;;;;;;6.78;1.13;;;14.10;54.10;;;;;;5046895;28;20059;-55
2022/11/10 04:36:12;;;;;;;7.63;1.25;;;14.10;54.10;;;;;;5046361;28;20053;-55
2022/11/10 04:38:39;;;;;;;11.05;1.67;;;14.10;54.10;;;;;;5064536;28;20053;-53
2022/11/10 04:41:07;;;;;;;9.02;1.80;;;14.10;54.10;;;;;;5043283;28;20496;-55
2022/11/10 04:43:34;;;;;;;8.57;1.40;;;14.10;54.20;;;;;;5056126;28;20063;-55
2022/11/10 04:46:02;;;;;;;9.80;1.33;;;14.00;54.10;;;;;;5050987;28;20056;-56
2022/11/10 04:48:30;;;;;;;10.05;1.67;;;14.10;54.20;;;;;;5053093;28;20461;-52
2022/11/10 04:51:03;;;;;;;6.88;1.48;;;14.00;54.20;;;;;;5060535;28;20049;-56
2022/11/10 04:53:31;;;;;;;8.85;1.15;;;14.00;54.20;;;;;;5041287;28;20053;-54
2022/11/10 04:55:58;;;;;;;8.25;1.52;;;14.00;54.20;;;;;;5060299;28;20412;-54
2022/11/10 04:58:25;;;;;;;13.30;1.58;;;14.00;54.20;;;;;;5035279;28;20114;-55
2022/11/10 05:00:53;;;;;;;15.27;1.70;;;14.00;54.20;;;;;;5046398;28;20421;-55
2022/11/10 05:03:20;;;;;;;9.77;2.05;;;14.00;54.20;;;;;;5057554;28;20048;-55
2022/11/10 05:05:48;;;;;;;8.98;1.92;;;14.00;54.20;;;;;;5049181;28;20393;-56
2022/11/10 05:08:16;;;;;;;10.80;1.40;;;14.00;54.20;;;;;;5060691;28;20067;-54
2022/11/10 05:10:43;;;;;;;7.13;1.48;;;14.00;54.20;;;;;;5049447;28;20063;-53
2022/11/10 05:13:11;;;;;;;7.05;1.60;;;14.00;54.20;;;;;;5064013;28;20052;-53
2022/11/10 05:15:41;;;;;;;11.25;1.75;;;14.00;54.30;;;;;;5060144;28;20049;-54
2022/11/10 05:18:08;;;;;;;9.63;1.98;;;14.00;54.20;;;;;;5045715;28;20052;-52
2022/11/10 05:20:35;;;;;;;11.93;1.58;;;14.00;54.20;;;;;;5053307;28;20052;-51
2022/11/10 05:25:49;;;;;;;5.82;1.52;;;14.00;54.20;;;;;;5062153;28;20060;-50
2022/11/10 05:28:16;;;;;;;7.93;1.40;;;13.90;54.20;;;;;;5063671;28;20075;-56
2022/11/10 05:30:44;;;;;;;12.07;1.77;;;13.90;54.20;;;;;;5063938;28;20520;-49
2022/11/10 05:33:11;;;;;;;8.70;1.48;;;13.90;54.20;;;;;;5064389;28;20056;-55
2022/11/10 05:35:39;;;;;;;10.30;1.73;;;13.90;54.20;;;;;;5044278;28;20059;-50
2022/11/10 05:38:07;;;;;;;9.55;1.90;;;13.90;54.30;;;;;;5062445;28;20063;-55
2022/11/10 05:40:35;;;;;;;8.30;1.35;;;13.90;54.30;;;;;;5056489;28;20060;-56
2022/11/10 05:43:04;;;;;;;5.85;1.25;;;13.90;54.30;;;;;;5063397;28;20521;-55
2022/11/10 05:45:31;;;;;;;8.02;1.33;;;13.80;54.20;;;;;;5051624;28;20049;-54
2022/11/10 05:47:58;;;;;;;12.68;1.40;;;13.80;54.30;;;;;;5039877;28;20052;-49
2022/11/10 05:50:25;;;;;;;12.68;1.50;;;13.80;54.30;;;;;;5041062;28;20064;-55
2022/11/10 05:52:54;;;;;;;5.00;1.10;;;13.80;54.30;;;;;;5053843;28;20047;-56
2022/11/10 05:55:24;;;;;;;9.27;1.65;;;13.80;54.30;;;;;;5052431;28;20056;-56
2022/11/10 05:57:52;;;;;;;9.50;1.65;;;13.80;54.30;;;;;;5047608;28;20059;-56
2022/11/10 06:00:24;;;;;;;7.38;1.27;;;13.80;54.30;;;;;;5039901;28;20068;-53
2022/11/10 06:02:59;;;;;;;9.52;1.73;;;13.80;54.40;;;;;;5036108;28;20056;-56
2022/11/10 06:05:28;;;;;;;5.80;1.50;;;13.80;54.40;;;;;;5035957;28;20079;-51
2022/11/10 06:07:56;;;;;;;9.20;1.70;;;13.70;54.40;;;;;;5036642;28;20422;-57
2022/11/10 06:10:23;;;;;;;9.63;2.00;;;13.70;54.40;;;;;;5038698;28;20048;-53
2022/11/10 06:12:51;;;;;;;8.55;2.17;;;13.70;54.40;;;;;;5046267;28;20049;-52
2022/11/10 06:15:18;;;;;;;8.85;1.67;;;13.70;54.50;;;;;;5054820;28;20440;-55
2022/11/10 06:17:47;;;;;;;14.40;2.55;;;13.70;54.50;;;;;;5054491;28;20504;-55
2022/11/10 06:20:16;;;;;;;15.15;1.95;;;13.70;54.60;;;;;;5057404;28;20290;-51
2022/11/10 06:22:45;;;;;;;7.00;1.45;;;13.60;54.60;;;;;;5052408;28;20067;-53
2022/11/10 06:25:12;;;;;;;6.65;1.63;;;13.70;54.70;;;;;;5061472;28;20507;-54
2022/11/10 06:27:43;;;;;;;9.35;1.73;;;13.60;54.70;;;;;;5063078;28;20053;-55
2022/11/10 06:30:11;;;;;;;9.02;1.20;;;13.60;54.70;;;;;;5061434;28;20052;-56
2022/11/10 06:32:42;;;;;;;11.13;1.70;;;13.60;54.70;;;;;;5042802;28;20055;-52
2022/11/10 06:35:11;;;;;;;8.13;1.50;;;13.60;54.80;;;;;;5034915;28;20056;-49
2022/11/10 06:37:38;;;;;;;7.32;1.40;;;13.60;54.80;;;;;;5033309;28;20060;-54
2022/11/10 06:40:07;;;;;;;7.63;1.40;;;13.60;54.80;;;;;;5032335;28;20084;-55
2022/11/10 06:42:35;;;;;;;10.88;1.67;;;13.60;54.90;;;;;;5035055;28;20420;-55
2022/11/10 06:45:03;;;;;;;7.63;1.58;;;13.60;54.90;;;;;;5034902;28;20053;-56
2022/11/10 06:47:31;;;;;;;18.92;1.67;;;13.50;54.90;;;;;;5036065;28;20060;-49
2022/11/10 06:49:58;;;;;;;13.02;1.85;;;13.50;54.90;;;;;;5032971;28;20051;-52
2022/11/10 06:52:27;;;;;;;9.00;1.42;;;13.50;55.00;;;;;;5035743;28;20052;-49
2022/11/10 06:54:54;;;;;;;31.25;11.85;;;13.50;55.00;;;;;;5034698;28;20049;-55
2022/11/10 06:57:21;;;;;;;20.52;7.68;;;13.50;55.10;;;;;;5051062;28;20713;-56
2022/11/10 06:59:48;;;;;;;21.13;10.27;;;13.50;55.10;;;;;;5052063;28;20067;-56
2022/11/10 07:02:16;;;;;;;30.50;14.07;;;13.50;55.10;;;;;;5048975;28;20049;-56
2022/11/10 07:04:43;;;;;;;13.43;6.85;;;13.50;55.20;;;;;;5052455;28;20056;-56
2022/11/10 07:07:11;;;;;;;17.83;7.90;;;13.50;55.20;;;;;;5058696;28;20504;-56
2022/11/10 07:09:40;;;;;;;17.85;6.15;;;13.50;55.20;;;;;;5057090;28;20056;-55
2022/11/10 07:12:07;;;;;;;17.58;7.47;;;13.50;55.30;;;;;;5051198;28;20045;-55
2022/11/10 07:14:34;;;;;;;14.05;3.70;;;13.50;55.30;;;;;;5063239;28;20396;-56
2022/11/10 07:17:02;;;;;;;9.93;3.42;;;13.40;55.30;;;;;;5052846;28;20060;-56
2022/11/10 07:19:31;;;;;;;8.50;2.90;;;13.50;55.40;;;;;;5053991;28;20052;-55
2022/11/10 07:21:58;;;;;;;14.77;3.83;;;13.50;55.50;;;;;;5050619;28;20044;-54
2022/11/10 07:24:29;;;;;;;13.18;3.55;;;13.50;55.60;;;;;;5055196;28;20059;-55
2022/11/10 07:26:57;;;;;;;16.25;4.00;;;13.50;55.70;;;;;;5059847;28;20052;-55
2022/11/10 07:29:25;;;;;;;8.50;2.47;;;13.50;55.70;;;;;;5057113;28;20056;-49
2022/11/10 07:31:52;;;;;;;10.07;2.30;;;13.50;55.70;;;;;;5043442;28;20053;-52
2022/11/10 07:34:20;;;;;;;7.30;1.40;;;13.50;55.70;;;;;;5037264;28;20045;-53
2022/11/10 07:36:47;;;;;;;12.07;1.77;;;13.50;55.70;;;;;;5052900;28;20049;-57
2022/11/10 07:39:14;;;;;;;12.25;2.05;;;13.60;55.80;;;;;;5044771;28;20044;-56
2022/11/10 07:41:41;;;;;;;8.77;1.75;;;13.60;55.80;;;;;;5060872;28;20063;-56
2022/11/10 07:44:10;;;;;;;9.10;1.75;;;13.60;55.80;;;;;;5035935;28;20056;-49
2022/11/10 07:46:38;;;;;;;8.52;2.20;;;13.60;56.20;;;;;;5035892;28;20096;-56
2022/11/10 07:49:05;;;;;;;14.77;2.30;;;13.60;55.80;;;;;;5043107;28;20052;-52
2022/11/10 07:51:34;;;;;;;6.88;1.58;;;13.70;55.80;;;;;;5040202;28;20048;-51
2022/11/10 07:54:01;;;;;;;12.13;2.05;;;13.60;55.80;;;;;;5058126;28;20052;-56
2022/11/10 07:56:28;;;;;;;9.93;1.83;;;13.70;55.80;;;;;;5058856;28;20522;-55
2022/11/10 07:58:56;;;;;;;10.77;2.10;;;13.70;55.80;;;;;;5046919;28;20057;-56
2022/11/10 08:01:24;;;;;;;10.35;3.42;;;13.70;55.90;;;;;;5050074;28;20389;-55
2022/11/10 08:03:51;;;;;;;10.63;2.70;;;13.80;55.90;;;;;;5037503;28;20049;-55
2022/11/10 08:06:19;;;;;;;17.17;2.25;;;13.80;55.90;;;;;;5049263;28;20416;-56
2022/11/10 08:08:46;;;;;;;12.93;1.90;;;13.80;55.90;;;;;;5043236;28;20045;-56
2022/11/10 08:11:14;;;;;;;9.70;1.98;;;13.80;55.90;;;;;;5038050;28;20068;-52
2022/11/10 08:13:41;;;;;;;12.00;1.83;;;13.80;55.80;;;;;;5038873;28;20500;-54
2022/11/10 08:16:09;;;;;;;8.98;1.65;;;13.90;55.90;;;;;;5038211;28;20427;-55
2022/11/10 08:18:37;;;;;;;7.97;1.33;;;13.90;55.80;;;;;;5038216;28;20059;-56
2022/11/10 08:21:06;;;;;;;8.23;1.70;;;13.90;55.80;;;;;;5046497;28;20665;-54
2022/11/10 08:23:34;;;;;;;5.65;1.65;;;13.90;55.80;;;;;;5047059;28;20052;-55
2022/11/10 08:26:01;;;;;;;6.88;1.42;;;13.90;55.80;;;;;;5042558;28;20401;-51
2022/11/10 08:28:29;;;;;;;6.63;1.52;;;14.00;55.80;;;;;;5038082;28;20492;-52
2022/11/10 08:30:56;;;;;;;7.60;1.73;;;14.00;55.70;;;;;;5044661;28;20053;-54
2022/11/10 08:33:23;;;;;;;11.88;3.47;;;14.00;55.70;;;;;;5044245;28;20056;-55
2022/11/10 08:35:52;;;;;;;12.73;3.35;;;14.10;55.80;;;;;;5034378;28;20707;-57
2022/11/10 08:38:21;;;;;;;14.00;3.10;;;14.10;55.80;;;;;;5047049;28;20526;-46
2022/11/10 08:40:49;;;;;;;9.40;2.05;;;14.10;55.70;;;;;;5041767;28;20055;-55
2022/11/10 08:43:17;;;;;;;7.28;1.52;;;14.10;55.70;;;;;;5044801;28;20056;-56
2022/11/10 08:45:45;;;;;;;9.93;2.15;;;14.20;55.70;;;;;;5040557;28;20480;-55
2022/11/10 08:48:13;;;;;;;10.15;1.92;;;14.20;55.70;;;;;;5033989;28;20072;-55
2022/11/10 08:50:41;;;;;;;10.38;3.03;;;14.20;55.70;;;;;;5041954;28;20052;-53
2022/11/10 08:53:12;;;;;;;10.50;2.55;;;14.20;55.70;;;;;;5037315;28;20067;-53
2022/11/10 08:55:40;;;;;;;13.23;2.10;;;14.20;55.70;;;;;;5036834;28;20053;-56
2022/11/10 08:58:11;;;;;;;13.57;2.05;;;14.30;55.70;;;;;;5038840;28;20064;-53
2022/11/10 09:00:38;;;;;;;9.60;1.50;;;14.30;55.70;;;;;;5034293;28;20503;-54
2022/11/10 09:03:08;;;;;;;4.55;1.58;;;14.30;55.60;;;;;;5034275;28;20090;-54
2022/11/10 09:05:36;;;;;;;8.43;1.45;;;14.30;55.60;;;;;;5036705;28;20471;-54
2022/11/10 09:08:04;;;;;;;9.63;1.80;;;14.40;55.70;;;;;;5042699;28;20074;-48
2022/11/10 09:10:34;;;;;;;10.50;1.83;;;14.40;55.60;;;;;;5043955;28;20045;-56
2022/11/10 09:13:02;;;;;;;11.40;2.20;;;14.40;55.60;;;;;;5034539;28;20057;-50
2022/11/10 09:15:31;;;;;;;10.43;2.22;;;14.40;55.50;;;;;;5049071;28;20060;-57
2022/11/10 09:17:59;;;;;;;12.23;2.10;;;14.50;55.60;;;;;;5053420;28;20056;-56
2022/11/10 09:20:26;;;;;;;9.45;2.30;;;14.50;55.60;;;;;;5056012;28;21618;-58
2022/11/10 09:22:54;;;;;;;7.95;1.92;;;14.50;55.60;;;;;;5047250;28;20053;-57
2022/11/10 09:25:21;;;;;;;11.77;2.47;;;14.60;55.60;;;;;;5048858;28;20049;-56
2022/11/10 09:27:50;;;;;;;6.47;1.50;;;14.60;55.60;;;;;;5045349;28;20053;-54
2022/11/10 09:30:17;;;;;;;11.88;2.45;;;14.60;55.50;;;;;;5047414;28;20064;-58
2022/11/10 09:32:45;;;;;;;9.40;1.92;;;14.60;55.50;;;;;;5042180;28;20056;-51
2022/11/10 09:35:13;;;;;;;7.28;1.67;;;14.70;55.50;;;;;;5056085;28;20409;-57
2022/11/10 09:37:40;;;;;;;10.52;1.85;;;14.70;55.50;;;;;;5049750;28;20416;-57
2022/11/10 09:40:15;;;;;;;11.68;1.55;;;14.70;55.50;;;;;;5057021;28;20492;-55
2022/11/10 09:42:43;;;;;;;10.68;1.55;;;14.80;55.50;;;;;;5059810;28;20060;-58
2022/11/10 09:45:21;;;;;;;12.73;2.13;;;14.80;55.40;;;;;;5051673;28;20065;-52
2022/11/10 09:47:57;;;;;;;8.55;1.70;;;14.90;55.40;;;;;;5042570;28;20569;-55
2022/11/10 09:50:32;;;;;;;6.63;1.65;;;14.90;55.30;;;;;;5034995;28;20092;-55
2022/11/10 09:53:00;;;;;;;11.43;2.50;;;15.00;55.40;;;;;;5045458;28;20060;-52
2022/11/10 09:55:34;;;;;;;10.07;2.75;;;15.00;55.30;;;;;;5060602;28;20048;-56
2022/11/10 09:58:03;;;;;;;5.90;1.50;;;15.00;55.20;;;;;;5045575;28;20058;-54
2022/11/10 10:00:35;;;;;;;8.85;1.88;;;15.00;55.00;;;;;;5057305;28;20064;-55
2022/11/10 10:03:04;;;;;;;8.65;1.55;;;15.10;55.00;;;;;;5052953;28;20056;-56
2022/11/10 10:06:01;;;;;;;7.45;1.80;;;15.10;55.00;;;;;;5046754;28;20045;-57
2022/11/10 10:08:42;;;;;;;19.45;2.05;;;15.20;55.00;;;;;;5060921;28;20052;-56
2022/11/10 10:11:21;;;;;;;8.27;1.80;;;15.20;54.70;;;;;;5050318;28;20055;-58
2022/11/10 10:14:05;;;;;;;6.78;1.70;;;15.30;54.80;;;;;;5050438;28;20060;-57
2022/11/10 10:16:40;;;;;;;6.65;1.45;;;15.30;54.70;;;;;;5041374;28;20041;-57
2022/11/10 10:19:20;;;;;;;11.07;1.80;;;15.30;54.70;;;;;;5046322;28;20558;-55
2022/11/10 10:22:04;;;;;;;8.30;1.38;;;15.30;54.60;;;;;;5042763;28;20056;-52
2022/11/10 10:24:33;;;;;;;6.82;1.67;;;15.40;54.60;;;;;;5042481;28;20053;-52
2022/11/10 10:27:04;;;;;;;10.35;1.92;;;15.40;54.60;;;;;;5034192;28;20056;-50
2022/11/10 10:29:37;;;;;;;11.02;1.92;;;15.40;54.50;;;;;;5039637;28;20052;-56
2022/11/10 10:32:11;;;;;;;7.68;1.60;;;15.50;54.50;;;;;;5038489;28;20055;-55
2022/11/10 10:34:39;;;;;;;10.17;1.80;;;15.50;54.40;;;;;;5036262;28;20049;-56
2022/11/10 10:37:22;;;;;;;6.63;1.40;;;15.50;54.40;;;;;;5041522;28;20056;-51
2022/11/10 10:39:51;;;;;;;5.00;1.73;;;15.60;54.30;;;;;;5035264;28;20049;-58
2022/11/10 10:42:30;;;;;;;12.05;2.00;;;15.60;54.30;;;;;;5033159;28;20059;-56
2022/11/10 10:45:15;;;;;;;8.40;1.83;;;15.70;54.20;;;;;;5050987;28;20522;-56
2022/11/10 10:47:45;;;;;;;9.98;1.58;;;15.70;54.10;;;;;;5041549;28;20060;-56
2022/11/10 10:50:28;;;;;;;6.85;1.65;;;15.80;54.10;;;;;;5031460;28;20424;-56
2022/11/10 10:53:16;;;;;;;9.98;1.95;;;15.80;53.80;;;;;;5037298;28;20111;-55
2022/11/10 10:55:52;;;;;;;8.65;1.40;;;15.80;53.60;;;;;;5046964;28;20055;-54
2022/11/10 10:58:23;;;;;;;7.47;1.58;;;15.80;53.60;;;;;;5036066;28;20060;-56
2022/11/10 11:00:51;;;;;;;12.73;1.95;;;15.90;54.20;;;;;;5031628;28;20063;-58
2022/11/10 11:03:38;;;;;;;9.73;1.60;;;15.90;53.50;;;;;;5037465;28;20053;-56
2022/11/10 11:06:17;;;;;;;7.22;1.73;;;15.90;53.40;;;;;;5032132;28;20056;-57
2022/11/10 11:08:55;;;;;;;10.02;1.98;;;15.90;53.40;;;;;;5038234;28;20500;-57
2022/11/10 11:11:26;;;;;;;8.07;1.70;;;16.00;53.30;;;;;;5038989;28;20056;-55
2022/11/10 11:14:12;;;;;;;6.97;1.70;;;16.00;53.30;;;;;;5047612;28;20053;-58
2022/11/10 11:16:47;;;;;;;8.00;1.98;;;16.00;53.20;;;;;;5044995;28;20063;-57
2022/11/10 11:19:18;;;;;;;9.73;2.15;;;16.10;53.10;;;;;;5042535;28;20084;-56
2022/11/10 11:22:00;;;;;;;8.00;1.48;;;16.10;52.80;;;;;;5043727;28;20068;-57
2022/11/10 11:24:34;;;;;;;6.97;1.35;;;16.10;52.60;;;;;;5042206;28;20492;-56
2022/11/10 11:27:03;;;;;;;;;;;16.10;52.60;;;;;;5042314;28;20049;-51
2022/11/10 11:29:48;;;;;;;10.15;1.85;;;16.20;52.80;;;;;;5054139;28;19932;-58
2022/11/10 11:32:27;;;;;;;7.32;1.48;;;16.20;52.20;;;;;;5050319;28;20060;-56
2022/11/10 11:35:04;;;;;;;6.68;1.23;;;16.20;52.20;;;;;;5041013;28;20103;-56
2022/11/10 11:37:41;;;;;;;9.77;1.23;;;16.30;52.20;;;;;;5043083;28;20523;-49
2022/11/10 11:40:21;;;;;;;7.18;1.48;;;16.30;52.10;;;;;;5058833;28;20056;-58
2022/11/10 11:42:59;;;;;;;7.03;1.35;;;16.30;52.00;;;;;;5056777;28;20131;-53
2022/11/10 11:45:35;;;;;;;4.03;0.93;;;16.30;51.90;;;;;;5056315;28;20049;-51
2022/11/10 11:48:35;;;;;;;9.50;1.58;;;16.30;51.90;;;;;;5041636;28;20063;-58
2022/11/10 11:51:12;;;;;;;10.32;1.52;;;16.40;51.70;;;;;;5041333;28;20516;-56
2022/11/10 11:53:55;;;;;;;9.10;1.77;;;16.40;51.60;;;;;;5053016;28;20055;-58
2022/11/10 11:56:26;;;;;;;10.55;1.58;;;16.40;51.50;;;;;;5048294;28;20464;-56
2022/11/10 11:59:03;;;;;;;6.72;1.42;;;16.50;51.50;;;;;;5049725;28;20511;-57
2022/11/10 12:01:54;;;;;;;6.47;1.23;;;16.50;51.40;;;;;;5038770;28;20057;-57
2022/11/10 12:04:45;;;;;;;5.15;0.95;;;16.50;51.20;;;;;;5045497;28;20048;-54
2022/11/10 12:07:30;;;;;;;6.20;1.33;;;16.50;51.10;;;;;;5030712;28;20052;-53
2022/11/10 12:10:10;;;;;;;9.25;1.33;;;16.60;51.10;;;;;;5051046;28;20053;-57
2022/11/10 12:12:59;;;;;;;8.50;1.38;;;16.60;51.00;;;;;;5045529;28;20049;-55
2022/11/10 12:15:35;;;;;;;11.35;1.33;;;16.60;50.70;;;;;;5041128;28;20053;-53
2022/11/10 12:18:13;;;;;;;6.38;1.35;;;16.60;50.70;;;;;;5041351;28;20404;-56
2022/11/10 12:20:51;;;;;;;4.28;1.20;;;16.70;50.60;;;;;;5037447;28;20056;-47
2022/11/10 12:23:28;;;;;;;3.97;1.17;;;16.70;50.60;;;;;;5036072;28;20060;-57
2022/11/10 12:26:03;;;;;;;3.78;1.23;;;16.70;50.70;;;;;;5044988;28;20053;-57
2022/11/10 12:28:36;;;;;;;6.97;1.50;;;16.70;50.60;;;;;;5065829;28;20060;-57
2022/11/10 12:31:06;;;;;;;8.43;1.25;;;16.80;50.50;;;;;;5045072;28;20072;-57
2022/11/10 12:33:41;;;;;;;5.18;1.27;;;16.80;50.90;;;;;;5048567;28;20052;-55
2022/11/10 12:36:13;;;;;;;8.70;1.73;;;16.80;50.30;;;;;;5056677;28;20051;-48
2022/11/10 12:38:51;;;;;;;7.28;1.52;;;16.80;50.20;;;;;;5065034;28;20056;-56
2022/11/10 12:41:20;;;;;;;15.35;1.35;;;16.90;50.10;;;;;;5057246;28;20489;-56
2022/11/10 12:43:59;;;;;;;5.18;1.20;;;16.90;50.30;;;;;;5045433;28;20048;-56
2022/11/10 12:46:27;;;;;;;7.07;1.25;;;16.90;50.10;;;;;;5056410;28;20048;-56
2022/11/10 12:49:04;;;;;;;5.45;1.05;;;16.90;50.30;;;;;;5046400;28;20060;-50
2022/11/10 12:51:39;;;;;;;4.55;1.60;;;16.90;50.20;;;;;;5048660;28;20087;-55
2022/11/10 12:54:11;;;;;;;7.68;1.10;;;17.00;50.20;;;;;;5054454;28;20412;-56
2022/11/10 12:56:42;;;;;;;3.40;1.15;;;17.00;50.20;;;;;;5066094;28;20044;-57
2022/11/10 12:59:26;;;;;;;4.65;0.85;;;17.00;50.00;;;;;;5051836;28;20064;-54
2022/11/10 13:02:03;;;;;;;8.77;1.55;;;17.00;49.90;;;;;;5041487;28;20061;-57
2022/11/10 13:04:31;;;;;;;6.70;1.48;;;17.00;49.80;;;;;;5043138;28;20060;-56
2022/11/10 13:07:01;;;;;;;9.90;1.42;;;17.10;49.70;;;;;;5049335;28;20048;-53
2022/11/10 13:09:32;;;;;;;6.28;1.20;;;17.10;50.30;;;;;;5044376;28;20050;-56
2022/11/10 13:12:16;;;;;;;4.55;1.20;;;17.10;49.70;;;;;;5044686;28;20057;-58
2022/11/10 13:14:44;;;;;;;4.85;1.13;;;17.10;49.70;;;;;;5055538;28;20053;-53